Time,TemperatureF,DewpointF,PressureIn,WindDirection,WindDirectionDegrees,WindSpeedMPH,WindSpeedGustMPH,Humidity,HourlyPrecipIn,Conditions,Clouds,dailyrainin,SoftwareType,DateUTC
2013-08-02 00:00:00,71.1,71.1,29.99,NW,318,3.1,4.5,100,0.00,,,0.00,VWS V13.01,2013-08-02 05:00:00,
2013-08-02 00:01:00,67.7,66.0,29.99,West,263,0.0,0.0,94,0.00,,,0.00,VWS V13.01,2013-08-02 05:01:00,
2013-08-02 00:06:00,67.7,66.1,29.99,West,263,0.0,0.0,95,0.00,,,0.00,VWS V13.01,2013-08-02 05:06:00,
2013-08-02 00:11:00,67.5,66.0,29.99,West,263,0.0,0.0,95,0.00,,,0.00,VWS V13.01,2013-08-02 05:11:00,
2013-08-02 00:16:00,67.3,65.9,29.98,West,263,0.0,0.0,95,0.00,,,0.00,VWS V13.01,2013-08-02 05:16:00,
2013-08-02 00:21:00,67.4,66.0,29.99,West,263,0.0,0.0,95,0.00,,,0.00,VWS V13.01,2013-08-02 05:21:00,
2013-08-02 00:26:00,67.3,66.0,29.99,West,263,0.0,0.0,96,0.00,,,0.00,VWS V13.01,2013-08-02 05:26:00,
2013-08-02 00:31:00,67.1,65.8,29.99,South,177,2.8,3.2,96,0.00,,,0.00,VWS V13.01,2013-08-02 05:31:00,
2013-08-02 00:36:00,67.1,65.9,29.99,South,176,1.3,1.9,96,0.00,,,0.00,VWS V13.01,2013-08-02 05:36:00,
2013-08-02 00:41:00,67.1,66.0,29.99,South,187,0.9,1.2,96,0.00,,,0.00,VWS V13.01,2013-08-02 05:41:00,
2013-08-02 00:46:00,67.2,66.1,29.99,SSE,166,0.0,0.0,96,0.00,,,0.00,VWS V13.01,2013-08-02 05:46:00,
2013-08-02 00:51:00,67.0,65.9,29.99,SSE,166,0.0,0.0,96,0.00,,,0.00,VWS V13.01,2013-08-02 05:51:00,
2013-08-02 00:56:00,66.7,65.6,29.98,SSE,166,0.0,0.0,96,0.00,,,0.00,VWS V13.01,2013-08-02 05:56:00,
2013-08-02 01:01:00,66.8,65.7,29.98,SSE,166,0.0,0.0,96,0.00,,,0.00,VWS V13.01,2013-08-02 06:01:00,
2013-08-02 01:06:00,66.7,65.7,29.98,SSE,166,0.0,0.0,96,0.00,,,0.00,VWS V13.01,2013-08-02 06:06:00,
2013-08-02 01:11:00,66.7,65.6,29.98,SSE,166,0.0,0.0,96,0.00,,,0.00,VWS V13.01,2013-08-02 06:11:00,
2013-08-02 01:16:00,66.9,65.8,29.98,SSE,166,0.0,0.0,96,0.00,,,0.00,VWS V13.01,2013-08-02 06:16:00,
2013-08-02 01:21:00,66.7,65.6,29.98,SSE,166,0.0,0.0,96,0.00,,,0.00,VWS V13.01,2013-08-02 06:21:00,
2013-08-02 01:26:00,66.2,65.1,29.98,SSE,166,0.0,0.0,96,0.00,,,0.00,VWS V13.01,2013-08-02 06:26:00,
2013-08-02 01:31:00,66.2,65.2,29.98,SSE,166,0.0,0.0,96,0.00,,,0.00,VWS V13.01,2013-08-02 06:31:00,
2013-08-02 01:36:00,66.4,65.4,29.97,SSE,166,0.0,0.0,97,0.00,,,0.00,VWS V13.01,2013-08-02 06:36:00,
2013-08-02 01:41:00,66.4,65.5,29.97,SSE,166,0.0,0.0,97,0.00,,,0.00,VWS V13.01,2013-08-02 06:41:00,
2013-08-02 01:46:00,66.1,65.2,29.97,SSE,166,0.0,0.0,97,0.00,,,0.00,VWS V13.01,2013-08-02 06:46:00,
2013-08-02 01:51:00,66.1,65.2,29.97,SSE,166,0.0,0.0,97,0.00,,,0.00,VWS V13.01,2013-08-02 06:51:00,
2013-08-02 01:56:00,66.1,65.3,29.97,SSE,166,0.0,0.0,97,0.00,,,0.00,VWS V13.01,2013-08-02 06:56:00,
2013-08-02 02:01:00,65.7,64.9,29.97,South,177,3.5,3.7,97,0.00,,,0.00,VWS V13.01,2013-08-02 07:01:00,
2013-08-02 02:06:00,65.8,65.1,29.97,SSW,200,2.5,3.3,98,0.00,,,0.00,VWS V13.01,2013-08-02 07:06:00,
2013-08-02 02:11:00,65.7,65.0,29.97,South,190,3.4,4.0,98,0.00,,,0.00,VWS V13.01,2013-08-02 07:11:00,
2013-08-02 02:16:00,65.7,65.1,29.97,South,174,4.4,5.1,98,0.00,,,0.00,VWS V13.01,2013-08-02 07:16:00,
2013-08-02 02:21:00,65.7,65.1,29.97,South,181,5.0,5.4,98,0.00,,,0.00,VWS V13.01,2013-08-02 07:21:00,
2013-08-02 02:26:00,65.6,65.0,29.97,South,172,3.6,4.6,98,0.00,,,0.00,VWS V13.01,2013-08-02 07:26:00,
2013-08-02 02:31:00,65.8,65.2,29.97,South,183,2.9,3.5,98,0.00,,,0.00,VWS V13.01,2013-08-02 07:31:00,
2013-08-02 02:36:00,65.4,64.8,29.97,SSW,197,1.9,2.5,98,0.00,,,0.00,VWS V13.01,2013-08-02 07:36:00,
2013-08-02 02:41:00,65.5,64.9,29.97,South,177,1.2,1.8,98,0.00,,,0.00,VWS V13.01,2013-08-02 07:41:00,
2013-08-02 02:46:00,65.4,64.8,29.96,South,170,0.9,1.8,98,0.00,,,0.00,VWS V13.01,2013-08-02 07:46:00,
2013-08-02 02:50:00,65.4,64.8,29.96,SE,146,0.0,0.0,98,0.00,,,0.00,VWS V13.01,2013-08-02 07:50:00,
2013-08-02 02:55:00,65.3,64.7,29.96,South,184,1.9,3.0,98,0.00,,,0.00,VWS V13.01,2013-08-02 07:55:00,
2013-08-02 03:01:00,65.7,65.1,29.96,SSE,167,1.9,2.0,98,0.00,,,0.00,VWS V13.01,2013-08-02 08:01:00,
2013-08-02 03:06:00,66.0,65.3,29.96,South,173,1.2,2.4,98,0.00,,,0.00,VWS V13.01,2013-08-02 08:06:00,
2013-08-02 03:11:00,65.8,65.1,29.96,South,177,2.5,3.2,98,0.00,,,0.00,VWS V13.01,2013-08-02 08:11:00,
2013-08-02 03:16:00,66.1,65.3,29.96,SSE,152,2.8,3.5,97,0.00,,,0.00,VWS V13.01,2013-08-02 08:16:00,
2013-08-02 03:21:00,65.9,65.1,29.96,SSE,167,3.0,3.4,97,0.00,,,0.00,VWS V13.01,2013-08-02 08:21:00,
2013-08-02 03:26:00,66.1,65.3,29.95,South,170,3.1,3.4,97,0.00,,,0.00,VWS V13.01,2013-08-02 08:26:00,
2013-08-02 03:31:00,66.5,65.7,29.96,South,179,3.7,4.3,97,0.00,,,0.00,VWS V13.01,2013-08-02 08:31:00,
2013-08-02 03:36:00,66.3,65.5,29.95,South,186,4.5,4.5,97,0.00,,,0.00,VWS V13.01,2013-08-02 08:36:00,
2013-08-02 03:41:00,66.5,65.6,29.95,South,186,4.3,4.7,97,0.00,,,0.00,VWS V13.01,2013-08-02 08:41:00,
2013-08-02 03:46:00,66.3,65.4,29.96,SSW,193,4.7,5.0,97,0.00,,,0.00,VWS V13.01,2013-08-02 08:46:00,
2013-08-02 03:51:00,66.5,65.5,29.96,SSW,195,4.7,5.2,97,0.00,,,0.00,VWS V13.01,2013-08-02 08:51:00,
2013-08-02 03:56:00,66.3,65.3,29.96,South,170,6.0,7.0,96,0.00,,,0.00,VWS V13.01,2013-08-02 08:56:00,
2013-08-02 04:01:00,66.7,65.7,29.96,SSW,197,6.7,7.8,96,0.00,,,0.00,VWS V13.01,2013-08-02 09:01:00,
2013-08-02 04:06:00,67.1,66.1,29.95,South,186,6.0,6.1,96,0.00,,,0.00,VWS V13.01,2013-08-02 09:06:00,
2013-08-02 04:11:00,67.2,66.1,29.95,SSW,195,4.5,5.3,96,0.00,,,0.00,VWS V13.01,2013-08-02 09:11:00,
2013-08-02 04:16:00,67.2,66.1,29.95,South,188,3.7,6.8,96,0.00,,,0.00,VWS V13.01,2013-08-02 09:16:00,
2013-08-02 04:21:00,67.3,66.2,29.95,SSW,194,5.2,6.9,96,0.00,,,0.00,VWS V13.01,2013-08-02 09:21:00,
2013-08-02 04:26:00,67.2,66.1,29.95,South,174,7.2,7.2,96,0.00,,,0.00,VWS V13.01,2013-08-02 09:26:00,
2013-08-02 04:31:00,67.4,66.2,29.95,South,170,6.6,8.1,96,0.00,,,0.00,VWS V13.01,2013-08-02 09:31:00,
2013-08-02 04:37:00,67.3,66.0,29.95,SSE,166,8.6,8.8,96,0.00,,,0.00,VWS V13.01,2013-08-02 09:37:00,
2013-08-02 04:42:00,67.6,66.2,29.95,SSW,195,6.5,7.1,95,0.00,,,0.00,VWS V13.01,2013-08-02 09:42:00,
2013-08-02 04:47:00,67.1,65.7,29.95,South,191,5.1,6.7,95,0.00,,,0.00,VWS V13.01,2013-08-02 09:47:00,
2013-08-02 04:52:00,67.6,66.2,29.95,South,188,7.1,8.0,95,0.00,,,0.00,VWS V13.01,2013-08-02 09:52:00,
2013-08-02 04:57:00,67.8,66.3,29.95,South,186,5.7,6.9,95,0.00,,,0.00,VWS V13.01,2013-08-02 09:57:00,
2013-08-02 05:02:00,67.4,65.9,29.96,SSE,162,5.3,6.0,95,0.00,,,0.00,VWS V13.01,2013-08-02 10:02:00,
2013-08-02 05:07:00,67.6,66.1,29.96,South,169,6.2,7.1,95,0.00,,,0.00,VWS V13.01,2013-08-02 10:07:00,
2013-08-02 05:12:00,67.2,65.7,29.96,South,173,6.6,6.8,95,0.00,,,0.00,VWS V13.01,2013-08-02 10:12:00,
2013-08-02 05:17:00,67.3,65.8,29.96,South,174,5.7,7.0,95,0.00,,,0.00,VWS V13.01,2013-08-02 10:17:00,
2013-08-02 05:22:00,67.2,65.8,29.96,South,176,6.6,6.7,95,0.00,,,0.00,VWS V13.01,2013-08-02 10:22:00,
2013-08-02 05:27:00,67.1,65.7,29.96,South,184,6.6,6.6,95,0.00,,,0.00,VWS V13.01,2013-08-02 10:27:00,
2013-08-02 05:32:00,67.2,65.8,29.95,South,183,3.9,7.0,95,0.00,,,0.00,VWS V13.01,2013-08-02 10:32:00,
2013-08-02 05:37:00,67.1,65.7,29.96,SW,215,4.6,6.3,95,0.00,,,0.00,VWS V13.01,2013-08-02 10:37:00,
2013-08-02 05:42:00,67.2,65.7,29.96,South,187,6.3,6.3,95,0.00,,,0.00,VWS V13.01,2013-08-02 10:42:00,
2013-08-02 05:47:00,67.4,65.9,29.95,South,184,5.8,7.6,95,0.00,,,0.00,VWS V13.01,2013-08-02 10:47:00,
2013-08-02 05:52:00,67.0,65.3,29.96,SW,215,5.8,8.1,94,0.00,,,0.00,VWS V13.01,2013-08-02 10:52:00,
2013-08-02 05:57:00,67.3,65.4,29.96,SSW,210,3.7,4.8,94,0.00,,,0.00,VWS V13.01,2013-08-02 10:57:00,
2013-08-02 06:02:00,67.7,65.8,29.96,SSW,211,4.7,6.0,94,0.00,,,0.00,VWS V13.01,2013-08-02 11:02:00,
2013-08-02 06:07:00,67.7,65.8,29.95,SSW,193,5.7,7.2,94,0.00,,,0.00,VWS V13.01,2013-08-02 11:07:00,
2013-08-02 06:12:00,67.7,65.8,29.95,South,186,6.3,8.8,94,0.00,,,0.00,VWS V13.01,2013-08-02 11:12:00,
2013-08-02 06:17:00,67.3,65.4,29.95,SSW,208,6.5,7.6,94,0.00,,,0.00,VWS V13.01,2013-08-02 11:17:00,
2013-08-02 06:22:00,67.7,65.9,29.95,SSW,201,4.8,6.0,94,0.00,,,0.00,VWS V13.01,2013-08-02 11:22:00,
2013-08-02 06:27:00,67.2,65.5,29.95,South,191,7.1,7.3,94,0.00,,,0.00,VWS V13.01,2013-08-02 11:27:00,
2013-08-02 06:32:00,67.2,65.7,29.95,South,181,3.9,3.9,95,0.00,,,0.00,VWS V13.01,2013-08-02 11:32:00,
2013-08-02 06:37:00,67.2,65.8,29.95,SSW,195,4.9,5.3,95,0.00,,,0.00,VWS V13.01,2013-08-02 11:37:00,
2013-08-02 06:42:00,67.0,65.7,29.95,SSW,194,6.2,6.2,96,0.00,,,0.00,VWS V13.01,2013-08-02 11:42:00,
2013-08-02 06:47:00,67.2,65.9,29.95,South,186,6.2,7.5,96,0.00,,,0.00,VWS V13.01,2013-08-02 11:47:00,
2013-08-02 06:52:00,66.9,65.6,29.95,South,186,6.3,7.4,96,0.00,,,0.00,VWS V13.01,2013-08-02 11:52:00,
2013-08-02 06:57:00,67.3,66.0,29.95,SSW,202,3.7,4.2,96,0.00,,,0.00,VWS V13.01,2013-08-02 11:57:00,
2013-08-02 07:02:00,67.0,65.7,29.95,South,186,2.8,4.0,96,0.00,,,0.00,VWS V13.01,2013-08-02 12:02:00,
2013-08-02 07:07:00,67.0,65.7,29.95,SSW,212,5.3,5.3,96,0.00,,,0.00,VWS V13.01,2013-08-02 12:07:00,
2013-08-02 07:12:00,67.3,65.9,29.95,South,187,4.1,4.5,95,0.00,,,0.00,VWS V13.01,2013-08-02 12:12:00,
2013-08-02 07:17:00,67.4,66.0,29.95,South,188,4.0,5.5,95,0.00,,,0.00,VWS V13.01,2013-08-02 12:17:00,
2013-08-02 07:22:00,67.9,66.5,29.95,South,186,4.4,4.7,95,0.00,,,0.00,VWS V13.01,2013-08-02 12:22:00,
2013-08-02 07:27:00,67.8,66.4,29.95,SSW,200,4.5,7.1,95,0.00,,,0.00,VWS V13.01,2013-08-02 12:27:00,
2013-08-02 07:32:00,68.1,66.6,29.95,SSW,208,5.0,7.6,95,0.00,,,0.00,VWS V13.01,2013-08-02 12:32:00,
2013-08-02 07:37:00,68.2,66.6,29.95,South,188,5.8,8.9,95,0.00,,,0.00,VWS V13.01,2013-08-02 12:37:00,
2013-08-02 07:43:00,68.4,66.8,29.95,South,180,6.8,6.8,95,0.00,,,0.00,VWS V13.01,2013-08-02 12:43:00,
2013-08-02 07:48:00,68.5,66.9,29.95,SSW,197,6.8,9.1,95,0.00,,,0.00,VWS V13.01,2013-08-02 12:48:00,
2013-08-02 07:52:00,69.0,67.5,29.95,SSW,205,5.1,7.9,95,0.00,,,0.00,VWS V13.01,2013-08-02 12:52:00,
2013-08-02 07:58:00,68.7,67.1,29.95,SW,219,6.4,9.6,94,0.00,,,0.00,VWS V13.01,2013-08-02 12:58:00,
2013-08-02 08:02:00,69.0,67.5,29.95,SSW,200,8.7,8.7,95,0.00,,,0.00,VWS V13.01,2013-08-02 13:02:00,
2013-08-02 08:07:00,69.2,67.4,29.95,SSW,205,9.4,12.6,94,0.00,,,0.00,VWS V13.01,2013-08-02 13:07:00,
2013-08-02 08:12:00,70.2,68.2,29.95,SSW,198,10.0,10.0,94,0.00,,,0.00,VWS V13.01,2013-08-02 13:12:00,
2013-08-02 08:17:00,70.0,67.8,29.95,SW,215,7.3,14.0,93,0.00,,,0.00,VWS V13.01,2013-08-02 13:17:00,
2013-08-02 08:22:00,70.4,67.9,29.96,SW,225,10.4,12.0,92,0.00,,,0.00,VWS V13.01,2013-08-02 13:22:00,
2013-08-02 08:27:00,70.8,67.8,29.95,SW,228,9.8,12.9,90,0.00,,,0.00,VWS V13.01,2013-08-02 13:27:00,
2013-08-02 08:32:00,71.2,68.1,29.96,SSW,202,8.1,10.9,90,0.00,,,0.00,VWS V13.01,2013-08-02 13:32:00,
2013-08-02 08:37:00,71.3,68.1,29.96,SSW,210,7.0,9.0,90,0.00,,,0.00,VWS V13.01,2013-08-02 13:37:00,
2013-08-02 08:42:00,71.5,68.4,29.96,South,170,6.3,10.3,90,0.00,,,0.00,VWS V13.01,2013-08-02 13:42:00,
2013-08-02 08:47:00,71.9,68.7,29.96,SSW,212,6.6,8.5,90,0.00,,,0.00,VWS V13.01,2013-08-02 13:47:00,
2013-08-02 08:52:00,71.7,68.5,29.95,SSW,202,5.9,11.7,90,0.00,,,0.00,VWS V13.01,2013-08-02 13:52:00,
2013-08-02 08:57:00,72.2,69.1,29.95,SSW,202,8.1,9.5,90,0.00,,,0.00,VWS V13.01,2013-08-02 13:57:00,
2013-08-02 09:02:00,72.5,69.1,29.95,SW,235,8.1,10.0,89,0.00,,,0.00,VWS V13.01,2013-08-02 14:02:00,
2013-08-02 09:07:00,73.1,69.6,29.95,SW,224,5.1,9.5,89,0.00,,,0.00,VWS V13.01,2013-08-02 14:07:00,
2013-08-02 09:13:00,73.1,69.3,29.95,SSW,204,7.0,8.3,88,0.00,,,0.00,VWS V13.01,2013-08-02 14:13:00,
2013-08-02 09:18:00,73.4,69.1,29.95,SSW,212,6.8,9.1,86,0.00,,,0.00,VWS V13.01,2013-08-02 14:18:00,
2013-08-02 09:23:00,73.8,69.6,29.95,SW,214,7.1,12.1,87,0.00,,,0.00,VWS V13.01,2013-08-02 14:23:00,
2013-08-02 09:27:00,74.0,69.7,29.95,SW,215,6.7,9.2,86,0.00,,,0.00,VWS V13.01,2013-08-02 14:27:00,
2013-08-02 09:33:00,73.9,69.6,29.95,WSW,240,4.7,8.3,86,0.00,,,0.00,VWS V13.01,2013-08-02 14:33:00,
2013-08-02 09:38:00,74.2,69.9,29.96,SW,219,5.2,12.0,86,0.00,,,0.00,VWS V13.01,2013-08-02 14:38:00,
2013-08-02 09:43:00,74.2,70.3,29.96,WSW,245,6.7,8.9,88,0.00,,,0.00,VWS V13.01,2013-08-02 14:43:00,
2013-08-02 09:48:00,74.4,70.4,29.96,SSW,205,7.3,11.2,87,0.00,,,0.00,VWS V13.01,2013-08-02 14:48:00,
2013-08-02 09:52:00,74.9,70.5,29.96,SSW,195,6.0,9.4,86,0.00,,,0.00,VWS V13.01,2013-08-02 14:52:00,
2013-08-02 09:58:00,75.4,70.9,29.95,SSW,208,11.8,12.6,86,0.00,,,0.00,VWS V13.01,2013-08-02 14:58:00,
2013-08-02 10:03:00,76.1,70.6,29.95,SW,224,7.8,13.9,83,0.00,,,0.00,VWS V13.01,2013-08-02 15:03:00,
2013-08-02 10:08:00,76.1,70.5,29.95,SSW,205,8.0,11.7,83,0.00,,,0.00,VWS V13.01,2013-08-02 15:08:00,
2013-08-02 10:12:00,76.4,70.2,29.95,WSW,238,9.3,16.7,81,0.00,,,0.00,VWS V13.01,2013-08-02 15:12:00,
2013-08-02 10:17:00,76.9,70.4,29.96,SSW,212,8.1,15.0,80,0.00,,,0.00,VWS V13.01,2013-08-02 15:17:00,
2013-08-02 10:23:00,77.8,71.3,29.96,SSW,202,12.6,15.3,80,0.00,,,0.00,VWS V13.01,2013-08-02 15:23:00,
2013-08-02 10:27:00,77.4,70.1,29.96,WSW,238,10.1,12.9,78,0.00,,,0.00,VWS V13.01,2013-08-02 15:27:00,
2013-08-02 10:33:00,77.8,70.8,29.96,SSW,193,9.2,9.8,79,0.00,,,0.00,VWS V13.01,2013-08-02 15:33:00,
2013-08-02 10:38:00,78.2,70.1,29.96,SW,218,9.7,14.3,76,0.00,,,0.00,VWS V13.01,2013-08-02 15:38:00,
2013-08-02 10:43:00,79.0,70.6,29.96,WSW,250,12.6,13.8,76,0.00,,,0.00,VWS V13.01,2013-08-02 15:43:00,
2013-08-02 10:48:00,79.0,70.8,29.96,SSW,195,9.3,9.7,76,0.00,,,0.00,VWS V13.01,2013-08-02 15:48:00,
2013-08-02 10:53:00,79.0,70.4,29.96,SSW,212,12.3,12.4,75,0.00,,,0.00,VWS V13.01,2013-08-02 15:53:00,
2013-08-02 10:58:00,78.8,70.4,29.96,SSW,204,7.3,10.5,76,0.00,,,0.00,VWS V13.01,2013-08-02 15:58:00,
2013-08-02 11:03:00,79.0,70.6,29.96,WSW,250,13.6,14.5,76,0.00,,,0.00,VWS V13.01,2013-08-02 16:03:00,
2013-08-02 11:08:00,79.2,70.1,29.96,SW,228,11.7,11.7,74,0.00,,,0.00,VWS V13.01,2013-08-02 16:08:00,
2013-08-02 11:13:00,79.3,69.9,29.96,WSW,246,7.2,10.6,73,0.00,,,0.00,VWS V13.01,2013-08-02 16:13:00,
2013-08-02 11:18:00,79.3,69.6,29.96,West,276,7.4,9.4,72,0.00,,,0.00,VWS V13.01,2013-08-02 16:18:00,
2013-08-02 11:23:00,79.5,69.5,29.95,WSW,242,10.8,13.5,72,0.00,,,0.00,VWS V13.01,2013-08-02 16:23:00,
2013-08-02 11:28:00,79.9,70.6,29.96,SSW,194,9.4,9.6,73,0.00,,,0.00,VWS V13.01,2013-08-02 16:28:00,
2013-08-02 11:33:00,79.3,69.5,29.96,SW,218,9.0,11.3,72,0.00,,,0.00,VWS V13.01,2013-08-02 16:33:00,
2013-08-02 11:38:00,79.8,69.8,29.96,SW,219,9.8,13.3,72,0.00,,,0.00,VWS V13.01,2013-08-02 16:38:00,
2013-08-02 11:42:00,79.5,70.3,29.96,SW,215,9.8,11.5,74,0.00,,,0.00,VWS V13.01,2013-08-02 16:42:00,
2013-08-02 11:48:00,80.1,70.3,29.96,SW,214,8.8,9.8,72,0.00,,,0.00,VWS V13.01,2013-08-02 16:48:00,
2013-08-02 11:52:00,80.5,70.8,29.96,SW,233,7.5,10.3,72,0.00,,,0.00,VWS V13.01,2013-08-02 16:52:00,
2013-08-02 11:57:00,80.3,69.6,29.96,SW,214,7.3,11.2,70,0.00,,,0.00,VWS V13.01,2013-08-02 16:57:00,
2013-08-02 12:03:00,80.6,70.0,29.96,WSW,238,5.2,9.0,70,0.00,,,0.00,VWS V13.01,2013-08-02 17:03:00,
2013-08-02 12:08:00,80.6,68.9,29.96,SSW,201,9.0,9.9,68,0.00,,,0.00,VWS V13.01,2013-08-02 17:08:00,
2013-08-02 12:13:00,80.5,70.3,29.96,SSW,194,9.3,14.1,71,0.00,,,0.00,VWS V13.01,2013-08-02 17:13:00,
2013-08-02 12:18:00,79.8,70.9,29.96,SSW,193,12.3,13.2,74,0.00,,,0.00,VWS V13.01,2013-08-02 17:18:00,
2013-08-02 12:23:00,79.7,71.5,29.96,SSW,205,8.3,8.9,76,0.00,,,0.00,VWS V13.01,2013-08-02 17:23:00,
2013-08-02 12:27:00,79.4,70.3,29.96,WSW,255,9.8,12.9,74,0.00,,,0.00,VWS V13.01,2013-08-02 17:27:00,
2013-08-02 12:33:00,79.7,70.9,29.96,South,183,10.0,12.2,74,0.00,,,0.00,VWS V13.01,2013-08-02 17:33:00,
2013-08-02 12:38:00,79.4,72.2,29.96,South,176,15.8,15.8,79,0.00,,,0.00,VWS V13.01,2013-08-02 17:38:00,
2013-08-02 12:42:00,80.1,71.5,29.96,SSW,204,11.4,16.4,75,0.00,,,0.00,VWS V13.01,2013-08-02 17:42:00,
2013-08-02 12:48:00,79.8,70.5,29.96,SSW,193,9.5,11.7,73,0.00,,,0.00,VWS V13.01,2013-08-02 17:48:00,
2013-08-02 12:53:00,79.3,70.4,29.96,SW,235,7.2,12.9,74,0.00,,,0.00,VWS V13.01,2013-08-02 17:53:00,
2013-08-02 12:57:00,78.9,70.6,29.96,South,170,7.6,9.4,76,0.00,,,0.00,VWS V13.01,2013-08-02 17:57:00,
2013-08-02 13:02:00,78.7,71.2,29.96,SSW,202,7.3,10.4,78,0.00,,,0.00,VWS V13.01,2013-08-02 18:02:00,
2013-08-02 13:07:00,79.0,71.4,29.96,SSW,205,8.0,12.1,78,0.00,,,0.00,VWS V13.01,2013-08-02 18:07:00,
2013-08-02 13:12:00,79.5,71.3,29.95,WSW,242,8.3,12.6,76,0.00,,,0.00,VWS V13.01,2013-08-02 18:12:00,
2013-08-02 13:18:00,80.4,71.3,29.95,South,188,8.3,11.5,74,0.00,,,0.00,VWS V13.01,2013-08-02 18:18:00,
2013-08-02 13:23:00,80.4,70.4,29.95,SSW,207,3.7,11.3,72,0.00,,,0.00,VWS V13.01,2013-08-02 18:23:00,
2013-08-02 13:27:00,80.4,70.5,29.95,South,173,6.7,9.4,72,0.00,,,0.00,VWS V13.01,2013-08-02 18:27:00,
2013-08-02 13:33:00,80.1,70.1,29.95,SSW,201,5.8,12.4,72,0.00,,,0.00,VWS V13.01,2013-08-02 18:33:00,
2013-08-02 13:38:00,80.4,70.3,29.95,SW,231,8.3,11.1,71,0.00,,,0.00,VWS V13.01,2013-08-02 18:38:00,
2013-08-02 13:43:00,80.3,70.3,29.95,SSW,197,11.9,11.9,72,0.00,,,0.00,VWS V13.01,2013-08-02 18:43:00,
2013-08-02 13:48:00,80.2,69.9,29.95,SSW,201,6.7,9.3,71,0.00,,,0.00,VWS V13.01,2013-08-02 18:48:00,
2013-08-02 13:52:00,80.3,70.5,29.95,SSW,194,8.3,8.9,72,0.00,,,0.00,VWS V13.01,2013-08-02 18:52:00,
2013-08-02 13:58:00,80.4,70.9,29.95,WSW,248,3.0,5.6,73,0.00,,,0.00,VWS V13.01,2013-08-02 18:58:00,
2013-08-02 14:03:00,80.5,71.0,29.95,SSW,205,10.5,11.6,73,0.00,,,0.00,VWS V13.01,2013-08-02 19:03:00,
2013-08-02 14:08:00,80.8,70.2,29.95,SSW,205,5.8,7.8,70,0.00,,,0.00,VWS V13.01,2013-08-02 19:08:00,
2013-08-02 14:13:00,80.5,70.1,29.95,SSW,194,9.4,10.4,71,0.00,,,0.00,VWS V13.01,2013-08-02 19:13:00,
2013-08-02 14:18:00,80.9,70.9,29.95,South,176,13.0,13.0,72,0.00,,,0.00,VWS V13.01,2013-08-02 19:18:00,
2013-08-02 14:22:00,80.5,70.3,29.94,SSE,153,5.7,10.9,71,0.00,,,0.00,VWS V13.01,2013-08-02 19:22:00,
2013-08-02 14:27:00,80.6,71.1,29.95,South,177,11.5,11.5,73,0.00,,,0.00,VWS V13.01,2013-08-02 19:27:00,
2013-08-02 14:32:00,81.4,72.0,29.94,South,169,11.1,12.3,73,0.00,,,0.00,VWS V13.01,2013-08-02 19:32:00,
2013-08-02 14:33:00,81.4,72.0,29.94,South,172,10.7,12.3,73,0.00,,,0.00,VWS V13.01,2013-08-02 19:33:00,
2013-08-02 14:38:00,81.9,70.8,29.94,SSE,158,9.8,14.2,69,0.00,,,0.00,VWS V13.01,2013-08-02 19:38:00,
2013-08-02 14:43:00,82.3,70.5,29.94,South,186,10.2,14.4,68,0.00,,,0.00,VWS V13.01,2013-08-02 19:43:00,
2013-08-02 14:48:00,81.5,69.2,29.94,South,176,9.3,11.6,66,0.00,,,0.00,VWS V13.01,2013-08-02 19:48:00,
2013-08-02 14:53:00,81.8,68.8,29.94,South,186,9.3,11.4,65,0.00,,,0.00,VWS V13.01,2013-08-02 19:53:00,
2013-08-02 14:57:00,82.2,68.9,29.94,SW,218,9.1,10.3,64,0.00,,,0.00,VWS V13.01,2013-08-02 19:57:00,
2013-08-02 15:02:00,81.9,67.1,29.93,South,177,12.2,13.8,61,0.00,,,0.00,VWS V13.01,2013-08-02 20:02:00,
2013-08-02 15:07:00,82.3,67.2,29.93,South,170,10.4,11.2,60,0.00,,,0.00,VWS V13.01,2013-08-02 20:07:00,
2013-08-02 15:13:00,82.3,66.8,29.93,South,180,7.8,11.2,60,0.00,,,0.00,VWS V13.01,2013-08-02 20:13:00,
2013-08-02 15:18:00,82.5,65.0,29.93,South,172,8.0,10.4,56,0.00,,,0.00,VWS V13.01,2013-08-02 20:18:00,
2013-08-02 15:22:00,82.5,64.3,29.93,South,186,11.8,14.2,54,0.00,,,0.00,VWS V13.01,2013-08-02 20:22:00,
2013-08-02 15:28:00,83.3,60.4,29.93,SW,215,5.1,10.7,46,0.00,,,0.00,VWS V13.01,2013-08-02 20:28:00,
2013-08-02 15:33:00,82.7,60.0,29.93,SSW,211,9.5,9.5,46,0.00,,,0.00,VWS V13.01,2013-08-02 20:33:00,
2013-08-02 15:38:00,82.6,60.7,29.93,SSE,159,6.4,11.2,48,0.00,,,0.00,VWS V13.01,2013-08-02 20:38:00,
2013-08-02 15:43:00,82.7,61.4,29.93,SW,225,5.6,9.0,49,0.00,,,0.00,VWS V13.01,2013-08-02 20:43:00,
2013-08-02 15:48:00,82.5,62.7,29.93,South,173,8.6,9.8,51,0.00,,,0.00,VWS V13.01,2013-08-02 20:48:00,
2013-08-02 15:53:00,82.5,63.5,29.93,SW,217,15.5,15.5,53,0.00,,,0.00,VWS V13.01,2013-08-02 20:53:00,
2013-08-02 15:58:00,82.9,63.0,29.93,SW,221,6.8,12.2,51,0.00,,,0.00,VWS V13.01,2013-08-02 20:58:00,
2013-08-02 16:03:00,82.9,63.2,29.93,West,262,6.8,10.6,51,0.00,,,0.00,VWS V13.01,2013-08-02 21:03:00,
2013-08-02 16:08:00,82.6,62.7,29.93,South,180,9.2,11.7,51,0.00,,,0.00,VWS V13.01,2013-08-02 21:08:00,
2013-08-02 16:13:00,82.9,63.3,29.93,South,183,8.5,10.7,52,0.00,,,0.00,VWS V13.01,2013-08-02 21:13:00,
2013-08-02 16:18:00,83.0,64.6,29.92,SSW,202,8.6,12.2,54,0.00,,,0.00,VWS V13.01,2013-08-02 21:18:00,
2013-08-02 16:23:00,82.8,64.9,29.92,South,174,4.1,6.5,55,0.00,,,0.00,VWS V13.01,2013-08-02 21:23:00,
2013-08-02 16:28:00,82.4,64.4,29.92,South,176,7.5,9.6,54,0.00,,,0.00,VWS V13.01,2013-08-02 21:28:00,
2013-08-02 16:33:00,82.4,64.4,29.92,South,183,8.0,10.1,54,0.00,,,0.00,VWS V13.01,2013-08-02 21:33:00,
2013-08-02 16:38:00,82.8,65.5,29.92,SSW,205,9.3,12.6,56,0.00,,,0.00,VWS V13.01,2013-08-02 21:38:00,
2013-08-02 16:43:00,82.4,64.5,29.92,South,187,9.7,17.7,55,0.00,,,0.00,VWS V13.01,2013-08-02 21:43:00,
2013-08-02 16:48:00,83.0,65.6,29.92,SW,236,10.7,13.2,56,0.00,,,0.00,VWS V13.01,2013-08-02 21:48:00,
2013-08-02 16:53:00,83.4,66.3,29.92,SW,217,5.7,10.1,56,0.00,,,0.00,VWS V13.01,2013-08-02 21:53:00,
2013-08-02 16:58:00,83.1,65.8,29.91,SW,221,9.4,17.1,56,0.00,,,0.00,VWS V13.01,2013-08-02 21:58:00,
2013-08-02 17:03:00,83.0,65.9,29.91,South,184,13.0,15.1,56,0.00,,,0.00,VWS V13.01,2013-08-02 22:03:00,
2013-08-02 17:08:00,82.6,66.7,29.91,South,184,8.6,12.1,59,0.00,,,0.00,VWS V13.01,2013-08-02 22:08:00,
2013-08-02 17:13:00,82.9,67.6,29.91,South,177,9.1,15.6,60,0.00,,,0.00,VWS V13.01,2013-08-02 22:13:00,
2013-08-02 17:18:00,82.5,68.1,29.91,SSW,195,12.2,15.6,62,0.00,,,0.00,VWS V13.01,2013-08-02 22:18:00,
2013-08-02 17:23:00,82.4,68.4,29.92,South,180,15.1,15.1,63,0.00,,,0.00,VWS V13.01,2013-08-02 22:23:00,
2013-08-02 17:28:00,82.4,68.5,29.92,South,186,13.0,16.4,63,0.00,,,0.00,VWS V13.01,2013-08-02 22:28:00,
2013-08-02 17:33:00,82.4,68.9,29.92,SSW,198,14.2,17.8,64,0.00,,,0.00,VWS V13.01,2013-08-02 22:33:00,
2013-08-02 17:38:00,82.1,69.5,29.92,SSW,193,10.9,13.0,66,0.00,,,0.00,VWS V13.01,2013-08-02 22:38:00,
2013-08-02 17:43:00,81.5,69.4,29.92,South,183,14.4,16.7,67,0.00,,,0.00,VWS V13.01,2013-08-02 22:43:00,
2013-08-02 17:48:00,81.5,70.8,29.92,South,190,6.6,10.3,70,0.00,,,0.00,VWS V13.01,2013-08-02 22:48:00,
2013-08-02 17:53:00,81.2,71.4,29.92,SSW,207,11.6,17.2,72,0.00,,,0.00,VWS V13.01,2013-08-02 22:53:00,
2013-08-02 17:58:00,80.7,71.4,29.92,South,181,12.1,15.3,73,0.00,,,0.00,VWS V13.01,2013-08-02 22:58:00,
2013-08-02 18:03:00,80.4,71.8,29.92,SSW,198,7.5,13.3,75,0.00,,,0.00,VWS V13.01,2013-08-02 23:03:00,
2013-08-02 18:08:00,80.2,71.8,29.92,South,174,11.2,14.9,76,0.00,,,0.00,VWS V13.01,2013-08-02 23:08:00,
2013-08-02 18:13:00,80.0,70.4,29.92,SSW,195,8.3,10.0,73,0.00,,,0.00,VWS V13.01,2013-08-02 23:13:00,
2013-08-02 18:18:00,79.7,71.6,29.92,South,176,10.6,13.9,76,0.00,,,0.00,VWS V13.01,2013-08-02 23:18:00,
2013-08-02 18:23:00,79.3,72.1,29.92,SSW,194,15.8,16.6,79,0.00,,,0.00,VWS V13.01,2013-08-02 23:23:00,
2013-08-02 18:28:00,78.9,72.3,29.92,SSW,195,13.4,15.5,80,0.00,,,0.00,VWS V13.01,2013-08-02 23:28:00,
2013-08-02 18:33:00,78.9,73.1,29.92,South,174,9.9,13.7,82,0.00,,,0.00,VWS V13.01,2013-08-02 23:33:00,
2013-08-02 18:38:00,78.2,71.8,29.93,South,191,11.8,19.8,81,0.00,,,0.00,VWS V13.01,2013-08-02 23:38:00,
2013-08-02 18:43:00,77.4,70.2,29.92,South,184,12.9,16.2,78,0.00,,,0.00,VWS V13.01,2013-08-02 23:43:00,
2013-08-02 18:48:00,76.2,69.8,29.93,South,188,11.1,12.3,81,0.00,,,0.00,VWS V13.01,2013-08-02 23:48:00,
2013-08-02 18:53:00,76.2,71.5,29.93,South,172,7.1,10.3,86,0.00,,,0.00,VWS V13.01,2013-08-02 23:53:00,
2013-08-02 18:58:00,76.1,72.7,29.93,South,183,5.6,7.0,89,0.00,,,0.01,VWS V13.01,2013-08-02 23:58:00,
2013-08-02 19:03:00,75.6,72.9,29.93,SSE,166,6.2,7.8,91,0.00,,,0.01,VWS V13.01,2013-08-03 00:03:00,
2013-08-02 19:08:00,75.4,73.6,29.93,SSW,194,3.9,6.3,94,0.00,,,0.02,VWS V13.01,2013-08-03 00:08:00,
2013-08-02 19:13:00,75.1,73.6,29.93,SSE,166,3.5,4.3,95,0.00,,,0.03,VWS V13.01,2013-08-03 00:13:00,
2013-08-02 19:18:00,74.7,73.6,29.93,South,187,5.0,5.2,96,0.00,,,0.03,VWS V13.01,2013-08-03 00:18:00,
2013-08-02 19:23:00,74.6,73.6,29.93,South,169,3.7,3.8,97,0.00,,,0.03,VWS V13.01,2013-08-03 00:23:00,
2013-08-02 19:28:00,74.7,73.9,29.93,SSE,167,1.9,2.0,97,0.00,,,0.03,VWS V13.01,2013-08-03 00:28:00,
2013-08-02 19:33:00,74.7,74.0,29.93,South,187,2.1,2.4,98,0.00,,,0.03,VWS V13.01,2013-08-03 00:33:00,
2013-08-02 19:38:00,74.7,74.1,29.93,South,190,3.4,4.0,98,0.00,,,0.03,VWS V13.01,2013-08-03 00:38:00,
2013-08-02 19:43:00,74.4,74.0,29.93,South,191,5.5,5.9,99,0.00,,,0.03,VWS V13.01,2013-08-03 00:43:00,
2013-08-02 19:48:00,74.7,74.4,29.93,South,173,4.0,5.1,99,0.00,,,0.03,VWS V13.01,2013-08-03 00:48:00,
2013-08-02 19:53:00,74.9,74.7,29.93,SSW,193,3.2,3.6,99,0.00,,,0.03,VWS V13.01,2013-08-03 00:53:00,
2013-08-02 19:58:00,75.0,74.9,29.93,SSW,201,3.2,5.3,100,0.00,,,0.03,VWS V13.01,2013-08-03 00:58:00,
2013-08-02 20:03:00,74.6,74.5,29.94,South,183,5.0,6.5,100,0.00,,,0.03,VWS V13.01,2013-08-03 01:03:00,
2013-08-02 20:08:00,74.9,74.8,29.94,South,183,8.4,9.8,100,0.00,,,0.03,VWS V13.01,2013-08-03 01:08:00,
2013-08-02 20:13:00,74.6,74.5,29.94,South,173,7.7,8.6,100,0.00,,,0.03,VWS V13.01,2013-08-03 01:13:00,
2013-08-02 20:18:00,74.7,74.7,29.94,SW,215,6.3,7.1,100,0.00,,,0.03,VWS V13.01,2013-08-03 01:18:00,
2013-08-02 20:23:00,74.8,74.8,29.95,South,188,8.4,8.4,100,0.00,,,0.03,VWS V13.01,2013-08-03 01:23:00,
2013-08-02 20:28:00,74.4,74.4,29.94,South,177,5.7,8.0,100,0.00,,,0.03,VWS V13.01,2013-08-03 01:28:00,
2013-08-02 20:33:00,74.7,74.7,29.95,SSW,207,11.2,11.4,100,0.00,,,0.03,VWS V13.01,2013-08-03 01:33:00,
2013-08-02 20:38:00,74.1,74.1,29.94,South,184,7.5,11.6,100,0.00,,,0.03,VWS V13.01,2013-08-03 01:38:00,
2013-08-02 20:43:00,74.0,74.0,29.95,SSW,195,8.0,10.6,100,0.00,,,0.03,VWS V13.01,2013-08-03 01:43:00,
2013-08-02 20:48:00,73.9,73.9,29.95,SW,217,10.1,11.6,100,0.00,,,0.03,VWS V13.01,2013-08-03 01:48:00,
2013-08-02 20:53:00,73.4,73.3,29.94,SSW,205,11.1,11.2,100,0.00,,,0.03,VWS V13.01,2013-08-03 01:53:00,
2013-08-02 20:58:00,73.6,73.5,29.94,SSW,194,7.5,10.3,100,0.00,,,0.03,VWS V13.01,2013-08-03 01:58:00,
2013-08-02 21:03:00,73.3,73.2,29.94,SSW,204,6.1,9.8,100,0.00,,,0.03,VWS V13.01,2013-08-03 02:03:00,
2013-08-02 21:08:00,73.2,73.0,29.94,SSW,200,7.6,8.2,99,0.00,,,0.03,VWS V13.01,2013-08-03 02:08:00,
2013-08-02 21:13:00,72.9,72.8,29.94,SSW,200,8.5,11.9,100,0.00,,,0.03,VWS V13.01,2013-08-03 02:13:00,
2013-08-02 21:18:00,72.7,72.6,29.95,SSW,204,8.3,11.2,100,0.00,,,0.03,VWS V13.01,2013-08-03 02:18:00,
2013-08-02 21:23:00,72.2,72.1,29.95,SSW,193,8.0,11.3,100,0.00,,,0.03,VWS V13.01,2013-08-03 02:23:00,
2013-08-02 21:28:00,72.3,72.2,29.95,SSW,200,9.1,11.0,100,0.00,,,0.03,VWS V13.01,2013-08-03 02:28:00,
2013-08-02 21:33:00,72.1,72.1,29.95,SSW,207,7.3,9.4,100,0.00,,,0.03,VWS V13.01,2013-08-03 02:33:00,
2013-08-02 21:38:00,72.4,72.4,29.96,SW,214,3.7,6.3,100,0.00,,,0.03,VWS V13.01,2013-08-03 02:38:00,
2013-08-02 21:43:00,72.0,72.0,29.97,SW,219,4.3,7.8,100,0.00,,,0.03,VWS V13.01,2013-08-03 02:43:00,
2013-08-02 21:48:00,72.2,72.2,29.97,SSW,208,4.5,5.0,100,0.00,,,0.03,VWS V13.01,2013-08-03 02:48:00,
2013-08-02 21:53:00,72.2,72.2,29.97,SSW,198,4.7,6.1,100,0.00,,,0.03,VWS V13.01,2013-08-03 02:53:00,
2013-08-02 21:58:00,71.8,71.8,29.97,SSW,205,6.6,7.8,100,0.00,,,0.03,VWS V13.01,2013-08-03 02:58:00,
2013-08-02 22:03:00,72.0,72.0,29.97,SW,215,5.7,6.0,100,0.00,,,0.03,VWS V13.01,2013-08-03 03:03:00,
2013-08-02 22:08:00,71.6,71.6,29.97,WSW,238,2.3,5.2,100,0.00,,,0.03,VWS V13.01,2013-08-03 03:08:00,
2013-08-02 22:13:00,71.4,71.4,29.97,South,190,5.2,6.6,100,0.00,,,0.03,VWS V13.01,2013-08-03 03:13:00,
2013-08-02 22:18:00,71.7,71.7,29.97,SW,229,5.8,6.2,100,0.00,,,0.03,VWS V13.01,2013-08-03 03:18:00,
2013-08-02 22:23:00,71.2,71.2,29.97,WSW,238,5.3,6.5,100,0.00,,,0.03,VWS V13.01,2013-08-03 03:23:00,
2013-08-02 22:28:00,71.2,71.2,29.97,WSW,255,4.9,6.5,100,0.00,,,0.03,VWS V13.01,2013-08-03 03:28:00,
2013-08-02 22:33:00,71.5,71.5,29.97,SSW,212,6.2,8.6,100,0.00,,,0.03,VWS V13.01,2013-08-03 03:33:00,
2013-08-02 22:38:00,70.8,70.8,29.98,West,270,4.8,7.2,100,0.00,,,0.03,VWS V13.01,2013-08-03 03:38:00,
2013-08-02 22:43:00,71.5,71.5,29.98,West,271,5.5,6.3,100,0.00,,,0.03,VWS V13.01,2013-08-03 03:43:00,
2013-08-02 22:48:00,71.2,71.2,29.98,WSW,249,4.2,5.8,100,0.00,,,0.03,VWS V13.01,2013-08-03 03:48:00,
2013-08-02 22:53:00,71.2,71.2,29.98,SW,226,5.5,5.6,100,0.00,,,0.03,VWS V13.01,2013-08-03 03:53:00,
2013-08-02 22:58:00,71.0,71.0,29.98,WSW,253,4.2,6.0,100,0.00,,,0.03,VWS V13.01,2013-08-03 03:58:00,
2013-08-02 23:01:00,71.3,71.3,29.98,WSW,253,5.8,5.8,100,0.00,,,0.03,VWS V13.01,2013-08-03 04:01:00,
2013-08-02 23:07:00,71.0,71.0,29.98,West,262,4.3,4.8,100,0.00,,,0.03,VWS V13.01,2013-08-03 04:07:00,
2013-08-02 23:12:00,71.0,71.0,29.98,West,277,2.9,4.0,100,0.00,,,0.03,VWS V13.01,2013-08-03 04:12:00,
2013-08-02 23:17:00,71.1,71.1,29.98,WNW,288,3.8,4.1,100,0.00,,,0.03,VWS V13.01,2013-08-03 04:17:00,
2013-08-02 23:21:00,71.1,71.1,29.98,WNW,283,3.7,3.7,100,0.00,,,0.03,VWS V13.01,2013-08-03 04:21:00,
2013-08-02 23:26:00,71.1,71.1,29.98,West,267,3.4,4.1,100,0.00,,,0.03,VWS V13.01,2013-08-03 04:26:00,
2013-08-02 23:32:00,71.2,71.2,29.98,West,263,4.2,5.2,100,0.00,,,0.03,VWS V13.01,2013-08-03 04:32:00,
2013-08-02 23:37:00,70.9,70.9,29.99,West,260,5.0,6.2,100,0.00,,,0.03,VWS V13.01,2013-08-03 04:37:00,
2013-08-02 23:42:00,70.8,70.8,29.98,WSW,253,5.5,7.6,100,0.00,,,0.03,VWS V13.01,2013-08-03 04:42:00,
2013-08-02 23:47:00,71.2,71.2,29.99,West,259,5.5,6.3,100,0.00,,,0.03,VWS V13.01,2013-08-03 04:47:00,
2013-08-02 23:52:00,71.1,71.1,29.98,WSW,250,5.2,5.9,100,0.00,,,0.04,VWS V13.01,2013-08-03 04:52:00,
2013-08-02 23:57:00,71.1,71.1,29.99,NW,305,4.2,4.2,100,0.00,,,0.04,VWS V13.01,2013-08-03 04:57:00,